Time;durP1;ratioP1;P1;durP2;ratioP2;P2;SDS_P1;SDS_P2;PMS_P1;PMS_P2;Temp;Humidity;BMP_temperature;BMP_pressure;BME280_temperature;BME280_humidity;BME280_pressure;Samples;Min_cycle;Max_cycle;Signal;HPM_P1;HPM_P2
2021/06/30 00:02:13;;;;;;;2.87;2.43;;;17.90;96.40;;;;;;5118013;28;20433;-69
2021/06/30 00:04:44;;;;;;;2.53;2.17;;;17.80;96.30;;;;;;5115605;28;20538;-69
2021/06/30 00:07:19;;;;;;;3.83;2.00;;;17.90;96.30;;;;;;5133140;28;20838;-70
2021/06/30 00:10:01;;;;;;;5.10;1.80;;;17.80;96.30;;;;;;5131978;28;20477;-70
2021/06/30 00:12:54;;;;;;;2.43;1.87;;;17.90;96.60;;;;;;5110984;28;20483;-71
2021/06/30 00:15:25;;;;;;;4.33;1.67;;;17.80;96.30;;;;;;5118329;28;20460;-69
2021/06/30 00:17:52;;;;;;;5.00;1.50;;;17.80;96.20;;;;;;5133343;28;20433;-69
2021/06/30 00:20:20;;;;;;;2.37;1.70;;;17.80;95.90;;;;;;5127567;28;20830;-69
2021/06/30 00:22:47;;;;;;;3.20;1.63;;;17.80;96.00;;;;;;5112917;28;20590;-69
2021/06/30 00:25:15;;;;;;;2.63;1.30;;;17.80;96.30;;;;;;5119619;28;20472;-69
2021/06/30 00:27:43;;;;;;;2.60;1.73;;;17.70;96.20;;;;;;5132897;28;20469;-69
2021/06/30 00:30:15;;;;;;;2.20;1.80;;;17.80;96.20;;;;;;5126001;28;20438;-69
2021/06/30 00:35:40;;;;;;;2.30;1.57;;;17.70;96.00;;;;;;5122995;28;20512;-69
2021/06/30 00:38:07;;;;;;;1.90;1.30;;;17.70;95.90;;;;;;5133652;28;20433;-70
2021/06/30 00:40:46;;;;;;;1.90;1.20;;;17.70;96.00;;;;;;5123523;28;20438;-69
2021/06/30 00:43:16;;;;;;;3.40;1.83;;;17.60;95.90;;;;;;5111934;28;20510;-69
2021/06/30 00:45:50;;;;;;;2.30;1.70;;;17.60;96.10;;;;;;5127617;28;20486;-70
2021/06/30 00:48:31;;;;;;;2.87;1.60;;;17.70;96.10;;;;;;5133448;28;20509;-69
2021/06/30 00:50:59;;;;;;;2.33;1.40;;;17.60;95.80;;;;;;5116441;28;20486;-69
2021/06/30 00:53:55;;;;;;;2.37;1.40;;;17.60;96.10;;;;;;5112672;28;20464;-69
2021/06/30 00:56:27;;;;;;;2.67;1.90;;;17.60;96.20;;;;;;5132097;28;20469;-71
2021/06/30 00:59:28;;;;;;;3.83;1.73;;;17.60;96.20;;;;;;5133197;28;20490;-69
2021/06/30 01:02:04;;;;;;;4.93;1.50;;;17.60;96.20;;;;;;5092164;28;20453;-69
2021/06/30 01:04:42;;;;;;;3.63;1.90;;;17.60;96.30;;;;;;5123831;27;20557;-69
2021/06/30 01:07:24;;;;;;;2.30;1.20;;;17.50;96.30;;;;;;5123203;27;20803;-70
2021/06/30 01:10:02;;;;;;;2.80;1.60;;;17.50;96.00;;;;;;5095364;28;20454;-70
2021/06/30 01:12:56;;;;;;;2.80;1.70;;;17.40;96.10;;;;;;5126147;27;20429;-69
2021/06/30 01:15:54;;;;;;;2.80;1.63;;;17.40;96.40;;;;;;5136137;27;21009;-69
2021/06/30 01:18:35;;;;;;;3.80;1.50;;;17.50;96.60;;;;;;5095386;28;20476;-69
2021/06/30 01:21:09;;;;;;;2.80;1.80;;;17.50;96.70;;;;;;5099469;27;20496;-69
2021/06/30 01:24:02;;;;;;;3.20;2.00;;;17.50;96.80;;;;;;5136250;27;20437;-70
2021/06/30 01:26:44;;;;;;;2.30;1.40;;;17.50;96.90;;;;;;5131782;27;20521;-69
2021/06/30 01:29:28;;;;;;;3.80;1.60;;;17.50;97.20;;;;;;5115957;28;20434;-69
2021/06/30 01:31:58;;;;;;;2.97;1.80;;;17.50;97.10;;;;;;5123039;27;20465;-69
2021/06/30 01:34:26;;;;;;;3.47;2.03;;;17.50;97.20;;;;;;5135785;27;20425;-69
2021/06/30 01:37:01;;;;;;;4.00;1.70;;;17.50;97.30;;;;;;5134075;27;20480;-70
2021/06/30 01:39:30;;;;;;;5.40;2.27;;;17.50;97.20;;;;;;5136030;27;20473;-69
2021/06/30 01:42:03;;;;;;;3.30;2.20;;;17.50;96.80;;;;;;5124857;27;20809;-69
2021/06/30 01:44:33;;;;;;;3.17;2.10;;;17.50;96.60;;;;;;5115370;28;20489;-69
2021/06/30 01:47:03;;;;;;;2.70;2.00;;;17.40;96.30;;;;;;5126266;27;20464;-69
2021/06/30 01:49:40;;;;;;;4.30;2.00;;;17.50;96.40;;;;;;5135596;27;20437;-69
2021/06/30 01:52:10;;;;;;;3.27;1.70;;;17.50;96.30;;;;;;5124083;27;20978;-69
2021/06/30 01:54:39;;;;;;;2.30;1.60;;;17.50;96.20;;;;;;5114845;28;20487;-69
2021/06/30 01:57:06;;;;;;;2.60;1.93;;;17.40;96.00;;;;;;5125295;27;20775;-70
2021/06/30 01:59:36;;;;;;;4.40;2.47;;;17.40;95.90;;;;;;5136135;27;20835;-69
2021/06/30 02:02:07;;;;;;;2.63;2.30;;;17.40;95.30;;;;;;5126387;27;20515;-70
2021/06/30 02:04:35;;;;;;;3.33;1.80;;;17.40;95.40;;;;;;5116167;28;20604;-70
2021/06/30 02:07:02;;;;;;;2.20;1.20;;;17.40;95.30;;;;;;5124471;27;20437;-70
2021/06/30 02:09:29;;;;;;;2.00;1.30;;;17.30;95.20;;;;;;5135251;27;20429;-69
2021/06/30 02:12:04;;;;;;;3.30;1.10;;;17.30;94.50;;;;;;5126315;27;20483;-69
2021/06/30 02:14:31;;;;;;;3.27;1.20;;;17.30;94.30;;;;;;5113562;28;20461;-69
2021/06/30 02:17:18;;;;;;;1.90;1.27;;;17.20;94.30;;;;;;5116288;27;20434;-69
2021/06/30 02:19:48;;;;;;;1.87;1.20;;;17.20;94.10;;;;;;5114629;28;20437;-69
2021/06/30 02:22:19;;;;;;;1.70;0.90;;;17.10;93.70;;;;;;5132500;27;20494;-70
2021/06/30 02:24:59;;;;;;;5.03;1.10;;;17.00;92.70;;;;;;5135186;27;20589;-69
2021/06/30 02:27:28;;;;;;;3.13;0.73;;;16.90;93.10;;;;;;5125719;27;20470;-70
2021/06/30 02:29:56;;;;;;;1.57;0.63;;;16.70;92.70;;;;;;5135682;27;20566;-70
2021/06/30 02:32:23;;;;;;;1.50;0.60;;;16.70;92.70;;;;;;5116969;27;20466;-69
2021/06/30 02:34:51;;;;;;;1.40;0.60;;;16.70;92.80;;;;;;5114116;28;20434;-69
2021/06/30 02:37:21;;;;;;;4.90;0.90;;;16.50;93.30;;;;;;5121042;27;20433;-70
2021/06/30 02:39:48;;;;;;;2.40;0.67;;;16.50;93.40;;;;;;5114171;28;20822;-70
2021/06/30 02:42:19;;;;;;;2.53;1.00;;;16.40;93.70;;;;;;5128712;27;20486;-69
2021/06/30 02:44:48;;;;;;;3.93;0.70;;;16.30;93.40;;;;;;5134392;27;20481;-69
2021/06/30 02:47:15;;;;;;;1.73;0.90;;;16.30;93.60;;;;;;5132633;27;20437;-69
2021/06/30 02:49:41;;;;;;;1.57;0.70;;;16.20;93.50;;;;;;5134533;27;20437;-69
2021/06/30 02:52:12;;;;;;;1.73;0.70;;;16.20;93.90;;;;;;5132835;27;20437;-70
2021/06/30 02:54:48;;;;;;;1.70;0.80;;;16.20;94.00;;;;;;5135464;27;21002;-69
2021/06/30 02:57:15;;;;;;;2.47;0.70;;;16.20;93.80;;;;;;5121621;27;20939;-69
2021/06/30 02:59:42;;;;;;;1.60;0.90;;;16.20;93.90;;;;;;5114631;28;20525;-69
2021/06/30 03:02:45;;;;;;;1.80;0.70;;;16.20;93.70;;;;;;5125197;27;20426;-70
2021/06/30 03:06:21;;;;;;;3.80;0.80;;;16.20;93.50;;;;;;5134743;27;20481;-69
2021/06/30 03:08:57;;;;;;;1.63;0.63;;;16.10;93.50;;;;;;5093662;28;20439;-69
2021/06/30 03:11:24;;;;;;;1.57;0.60;;;16.10;92.80;;;;;;5100793;27;20822;-69
2021/06/30 03:13:51;;;;;;;1.50;0.67;;;16.00;92.70;;;;;;5131078;27;20963;-70
2021/06/30 03:16:26;;;;;;;2.00;0.73;;;15.80;92.00;;;;;;5113399;28;20560;-69
2021/06/30 03:18:56;;;;;;;1.60;0.60;;;15.80;92.40;;;;;;5113329;28;20934;-68
2021/06/30 03:21:24;;;;;;;1.50;0.73;;;15.80;92.50;;;;;;5113691;28;20834;-69
2021/06/30 03:23:53;;;;;;;1.70;0.80;;;15.70;91.40;;;;;;5134076;27;20434;-69
2021/06/30 03:26:38;;;;;;;1.40;0.60;;;15.70;91.10;;;;;;5134038;27;20521;-70
2021/06/30 03:29:08;;;;;;;1.40;0.60;;;15.60;91.50;;;;;;5132321;27;20429;-69
2021/06/30 03:31:35;;;;;;;1.40;0.60;;;15.50;91.80;;;;;;5133731;27;20444;-68
2021/06/30 03:34:02;;;;;;;1.40;0.60;;;15.40;92.00;;;;;;5113132;27;20434;-69
2021/06/30 03:36:36;;;;;;;1.70;0.60;;;15.40;92.40;;;;;;5113147;28;20936;-69
2021/06/30 03:39:04;;;;;;;1.57;0.87;;;15.50;92.70;;;;;;5132403;27;20429;-69
2021/06/30 03:41:37;;;;;;;2.10;1.17;;;15.50;92.60;;;;;;5133430;27;20502;-70
2021/06/30 03:44:05;;;;;;;2.03;0.80;;;15.60;92.50;;;;;;5114112;27;20491;-69
2021/06/30 03:46:32;;;;;;;2.43;1.00;;;15.50;91.80;;;;;;5112840;28;20560;-69
2021/06/30 03:48:59;;;;;;;2.00;1.10;;;15.40;91.70;;;;;;5130776;27;20896;-69
2021/06/30 03:51:26;;;;;;;1.80;0.83;;;15.50;92.40;;;;;;5133231;27;20441;-69
2021/06/30 03:53:54;;;;;;;2.10;0.63;;;15.50;92.00;;;;;;5132455;27;20440;-69
2021/06/30 03:56:25;;;;;;;2.13;1.03;;;15.50;91.40;;;;;;5133189;28;20433;-70
2021/06/30 03:58:53;;;;;;;1.40;0.70;;;15.40;91.30;;;;;;5116175;28;20434;-69
2021/06/30 04:01:26;;;;;;;2.00;0.60;;;15.40;91.10;;;;;;5113034;28;20442;-69
2021/06/30 04:03:54;;;;;;;1.83;0.93;;;15.30;91.50;;;;;;5128964;28;20436;-69
2021/06/30 04:06:23;;;;;;;4.30;1.40;;;15.40;91.90;;;;;;5133581;28;20485;-69
2021/06/30 04:08:50;;;;;;;2.93;1.70;;;15.40;91.80;;;;;;5116636;28;20441;-69
2021/06/30 04:11:18;;;;;;;3.30;1.20;;;15.40;92.10;;;;;;5114209;28;20883;-69
2021/06/30 04:13:47;;;;;;;2.80;0.90;;;15.40;91.90;;;;;;5127143;28;20465;-69
2021/06/30 04:16:14;;;;;;;3.50;1.13;;;15.40;92.00;;;;;;5133545;28;20445;-69
2021/06/30 04:18:49;;;;;;;7.80;6.73;;;15.40;91.20;;;;;;5120056;28;20438;-69
2021/06/30 04:21:21;;;;;;;6.03;4.93;;;15.40;90.80;;;;;;5130002;28;20421;-69
2021/06/30 04:23:50;;;;;;;2.90;1.90;;;15.40;91.40;;;;;;5134118;28;20501;-69
2021/06/30 04:26:17;;;;;;;1.70;0.93;;;15.40;91.50;;;;;;5120305;28;20477;-71
2021/06/30 04:28:50;;;;;;;1.40;0.60;;;15.40;91.00;;;;;;5111225;28;20491;-72
2021/06/30 04:31:18;;;;;;;1.77;0.70;;;15.40;90.30;;;;;;5115664;28;20473;-70
2021/06/30 04:33:53;;;;;;;1.60;0.60;;;15.30;90.30;;;;;;5112616;28;20426;-71
2021/06/30 04:36:22;;;;;;;1.30;0.50;;;15.20;90.20;;;;;;5128221;28;20439;-71
2021/06/30 04:38:58;;;;;;;1.40;0.60;;;15.20;90.60;;;;;;5095890;28;20488;-70
2021/06/30 04:41:30;;;;;;;1.80;0.50;;;15.20;90.70;;;;;;5119743;27;20433;-70
2021/06/30 04:44:04;;;;;;;2.23;0.90;;;15.20;90.30;;;;;;5117232;28;20438;-70
2021/06/30 04:46:32;;;;;;;1.30;0.50;;;15.20;90.60;;;;;;5118911;27;20990;-69
2021/06/30 04:49:13;;;;;;;2.80;0.80;;;15.30;90.30;;;;;;5116456;28;20437;-71
2021/06/30 04:51:46;;;;;;;1.43;0.63;;;15.20;90.70;;;;;;5117927;27;20438;-69
2021/06/30 04:54:22;;;;;;;1.40;0.60;;;15.20;91.30;;;;;;5116846;28;20444;-69
2021/06/30 04:56:55;;;;;;;1.50;0.70;;;15.30;91.50;;;;;;5129406;27;20442;-70
2021/06/30 04:59:44;;;;;;;1.30;0.53;;;15.40;91.20;;;;;;5116915;28;20450;-69
2021/06/30 05:02:15;;;;;;;2.47;0.70;;;15.40;90.50;;;;;;5102193;27;20841;-69
2021/06/30 05:04:49;;;;;;;1.87;0.60;;;15.50;91.10;;;;;;5116972;28;20434;-69
2021/06/30 05:07:19;;;;;;;1.53;0.87;;;15.60;91.60;;;;;;5113824;28;20434;-69
2021/06/30 05:10:09;;;;;;;1.30;0.50;;;15.70;92.00;;;;;;5116809;28;20477;-69
2021/06/30 05:12:49;;;;;;;1.40;0.67;;;15.80;91.90;;;;;;5115993;28;20442;-69
2021/06/30 05:15:23;;;;;;;1.97;0.90;;;15.90;91.50;;;;;;5119073;27;20480;-70
2021/06/30 05:18:07;;;;;;;1.73;0.70;;;15.90;90.80;;;;;;5136676;27;20428;-69
2021/06/30 05:20:36;;;;;;;1.93;0.93;;;15.90;90.00;;;;;;5131667;27;20466;-68
2021/06/30 05:23:11;;;;;;;3.33;1.30;;;15.90;90.20;;;;;;5108028;27;20434;-68
2021/06/30 05:25:44;;;;;;;2.20;1.00;;;16.00;90.60;;;;;;5132696;27;20473;-69
2021/06/30 05:28:19;;;;;;;1.50;0.60;;;16.00;89.70;;;;;;5115777;28;20443;-69
2021/06/30 05:30:48;;;;;;;2.60;0.63;;;16.00;89.20;;;;;;5116045;27;20524;-69
2021/06/30 05:33:32;;;;;;;2.63;0.63;;;16.00;89.50;;;;;;5116166;28;20491;-69
2021/06/30 05:36:00;;;;;;;1.40;0.60;;;16.20;90.20;;;;;;5122562;27;20429;-69
2021/06/30 05:38:33;;;;;;;1.60;0.70;;;16.30;90.60;;;;;;5136284;27;20441;-69
2021/06/30 05:41:05;;;;;;;2.13;0.50;;;16.40;89.30;;;;;;5130210;27;20435;-69
2021/06/30 05:43:36;;;;;;;1.40;0.60;;;16.30;89.80;;;;;;5115162;28;20525;-70
2021/06/30 05:46:18;;;;;;;1.90;0.67;;;16.40;90.10;;;;;;5117051;27;20473;-69
2021/06/30 05:48:54;;;;;;;2.70;1.00;;;16.40;89.70;;;;;;5115379;28;20544;-69
2021/06/30 05:51:25;;;;;;;2.00;1.00;;;16.50;88.80;;;;;;5114618;27;20818;-69
2021/06/30 05:54:09;;;;;;;2.37;1.00;;;16.50;90.00;;;;;;5115743;28;20487;-69
2021/06/30 05:56:42;;;;;;;2.80;1.17;;;16.60;89.20;;;;;;5095386;28;20439;-69
2021/06/30 05:59:11;;;;;;;2.10;0.70;;;16.80;90.10;;;;;;5120822;27;20492;-70
2021/06/30 06:01:40;;;;;;;1.70;0.70;;;16.90;89.60;;;;;;5135644;27;20434;-69
2021/06/30 06:04:07;;;;;;;1.57;0.73;;;17.00;90.40;;;;;;5128451;27;20509;-69
2021/06/30 06:06:39;;;;;;;1.80;0.80;;;17.20;88.20;;;;;;5135613;27;20481;-70
2021/06/30 06:09:17;;;;;;;2.00;0.80;;;17.20;89.00;;;;;;5124455;27;20667;-69
2021/06/30 06:11:44;;;;;;;1.90;0.90;;;17.30;89.90;;;;;;5115623;28;20476;-69
2021/06/30 06:14:15;;;;;;;1.50;0.57;;;17.40;87.60;;;;;;5125546;27;20465;-69
2021/06/30 06:16:44;;;;;;;1.90;0.73;;;17.40;84.10;;;;;;5135468;27;20441;-68
2021/06/30 06:19:11;;;;;;;1.60;0.80;;;17.40;83.80;;;;;;5123944;27;20483;-69
2021/06/30 06:21:41;;;;;;;1.40;0.50;;;17.50;83.40;;;;;;5114811;28;20478;-69
2021/06/30 06:24:08;;;;;;;1.50;0.50;;;17.60;81.10;;;;;;5124567;27;20903;-69
2021/06/30 06:26:35;;;;;;;4.80;0.90;;;17.70;81.80;;;;;;5131290;27;21533;-69
2021/06/30 06:29:07;;;;;;;1.50;0.60;;;17.80;82.80;;;;;;5114336;28;20438;-69
2021/06/30 06:31:34;;;;;;;1.90;0.60;;;18.00;83.40;;;;;;5116074;27;20438;-69
2021/06/30 06:34:02;;;;;;;1.83;0.90;;;18.20;83.00;;;;;;5135072;27;20441;-69
2021/06/30 06:36:29;;;;;;;1.70;0.80;;;18.30;80.80;;;;;;5133311;27;20464;-69
2021/06/30 06:38:56;;;;;;;1.50;0.60;;;18.40;78.30;;;;;;5114324;28;20439;-70
2021/06/30 06:41:23;;;;;;;1.50;0.50;;;18.40;77.10;;;;;;5114246;28;20470;-70
2021/06/30 06:43:50;;;;;;;1.40;0.50;;;18.50;75.80;;;;;;5114427;28;20462;-69
2021/06/30 06:46:18;;;;;;;1.90;0.70;;;18.60;77.30;;;;;;5114546;28;20861;-70
2021/06/30 06:48:45;;;;;;;2.63;0.60;;;18.80;77.70;;;;;;5102470;28;20489;-71
2021/06/30 06:51:14;;;;;;;1.60;0.60;;;19.00;74.30;;;;;;5093733;28;20446;-72
2021/06/30 06:53:41;;;;;;;2.07;1.00;;;19.20;76.40;;;;;;5094101;28;20431;-69
2021/06/30 06:56:11;;;;;;;3.77;2.10;;;19.20;72.40;;;;;;5108705;27;20534;-70
2021/06/30 06:58:38;;;;;;;5.43;0.73;;;19.40;75.80;;;;;;5113935;28;20434;-69
2021/06/30 07:01:06;;;;;;;1.40;0.50;;;19.70;78.40;;;;;;5126557;27;20855;-74
2021/06/30 07:03:34;;;;;;;2.13;0.63;;;20.00;77.80;;;;;;5122891;27;20956;-69
2021/06/30 07:06:00;;;;;;;2.50;1.33;;;20.20;75.50;;;;;;5113816;28;20528;-69
2021/06/30 07:08:29;;;;;;;2.67;1.00;;;20.40;75.20;;;;;;5113918;28;20517;-70
2021/06/30 07:10:56;;;;;;;1.70;0.70;;;20.60;74.10;;;;;;5127287;27;20516;-70
2021/06/30 07:13:26;;;;;;;1.53;0.63;;;20.60;71.10;;;;;;5118537;27;20956;-70
2021/06/30 07:15:53;;;;;;;3.80;1.00;;;20.70;71.60;;;;;;5133897;27;20432;-70
2021/06/30 07:18:21;;;;;;;1.73;0.93;;;20.90;72.10;;;;;;5134648;27;20492;-69
2021/06/30 07:20:57;;;;;;;1.57;0.60;;;21.10;69.80;;;;;;5129019;27;20611;-70
2021/06/30 07:23:24;;;;;;;2.63;0.50;;;21.30;66.40;;;;;;5114095;28;20517;-70
2021/06/30 07:25:53;;;;;;;1.30;0.50;;;21.40;69.00;;;;;;5110296;27;20478;-71
2021/06/30 07:28:20;;;;;;;1.63;0.50;;;21.60;66.60;;;;;;5120575;27;20526;-71
2021/06/30 07:30:47;;;;;;;1.80;0.60;;;21.70;65.00;;;;;;5123669;27;20442;-70
2021/06/30 07:33:14;;;;;;;1.40;0.53;;;21.80;65.60;;;;;;5119114;27;20520;-70
2021/06/30 07:35:41;;;;;;;2.37;0.50;;;21.90;65.40;;;;;;5122851;27;20469;-70
2021/06/30 07:38:08;;;;;;;1.40;0.60;;;22.10;63.40;;;;;;5119995;27;20865;-70
2021/06/30 07:40:36;;;;;;;2.37;0.60;;;22.10;63.50;;;;;;5123737;27;20524;-69
2021/06/30 07:43:05;;;;;;;1.30;0.40;;;22.20;62.90;;;;;;5122681;27;20537;-69
2021/06/30 07:45:33;;;;;;;1.30;0.43;;;21.80;55.10;;;;;;5119448;27;20537;-69
2021/06/30 07:48:00;;;;;;;1.60;0.57;;;21.60;58.80;;;;;;5123942;27;20469;-69
2021/06/30 07:50:30;;;;;;;1.40;0.50;;;21.80;61.40;;;;;;5119729;27;20526;-69
2021/06/30 07:52:58;;;;;;;1.50;0.60;;;21.90;61.00;;;;;;5121433;27;20485;-69
2021/06/30 07:55:27;;;;;;;1.40;0.50;;;22.00;60.50;;;;;;5120772;27;21440;-69
2021/06/30 07:57:53;;;;;;;1.37;0.50;;;22.10;61.60;;;;;;5120880;28;20433;-69
2021/06/30 08:00:22;;;;;;;1.40;0.50;;;22.30;62.00;;;;;;5120310;28;20521;-69
2021/06/30 08:02:54;;;;;;;1.60;0.60;;;22.30;59.90;;;;;;5119815;28;20511;-70
2021/06/30 08:05:20;;;;;;;3.70;0.50;;;22.30;57.20;;;;;;5122178;28;20948;-69
2021/06/30 08:07:47;;;;;;;4.70;0.60;;;22.30;57.20;;;;;;5122026;28;20572;-70
2021/06/30 08:10:14;;;;;;;2.03;0.77;;;22.10;56.90;;;;;;5122320;28;20528;-70
2021/06/30 08:12:43;;;;;;;2.37;0.60;;;22.10;58.80;;;;;;5120804;27;20433;-69
2021/06/30 08:15:11;;;;;;;2.80;0.60;;;22.10;58.00;;;;;;5124594;27;20889;-69
2021/06/30 08:17:40;;;;;;;2.43;0.50;;;22.10;56.40;;;;;;5124842;27;20434;-69
2021/06/30 08:20:08;;;;;;;1.50;0.60;;;22.00;56.50;;;;;;5125014;27;20525;-69
2021/06/30 08:22:35;;;;;;;5.53;1.17;;;22.00;56.10;;;;;;5122557;27;20513;-69
2021/06/30 08:25:02;;;;;;;2.30;0.70;;;21.90;56.80;;;;;;5127682;27;20523;-69
2021/06/30 08:27:29;;;;;;;1.50;0.50;;;21.90;56.40;;;;;;5125169;27;20522;-69
2021/06/30 08:29:58;;;;;;;1.40;0.50;;;21.80;56.60;;;;;;5125638;27;20468;-69
2021/06/30 08:32:27;;;;;;;6.10;3.07;;;21.80;56.10;;;;;;5123155;27;20448;-69
2021/06/30 08:34:55;;;;;;;3.50;1.63;;;21.60;56.30;;;;;;5124512;27;20879;-69
2021/06/30 08:37:25;;;;;;;3.03;1.30;;;21.50;55.00;;;;;;5124479;27;20477;-69
2021/06/30 08:39:54;;;;;;;1.80;0.70;;;21.30;55.70;;;;;;5126457;27;20528;-69
2021/06/30 08:42:26;;;;;;;1.77;0.70;;;21.20;56.00;;;;;;5125773;27;20449;-72
2021/06/30 08:44:56;;;;;;;3.03;1.67;;;21.10;56.00;;;;;;5125725;27;20942;-69
2021/06/30 08:47:26;;;;;;;4.57;3.00;;;21.00;56.30;;;;;;5121735;27;20552;-69
2021/06/30 08:49:55;;;;;;;2.70;1.43;;;20.80;55.70;;;;;;5115911;28;20525;-68
2021/06/30 08:52:34;;;;;;;2.03;0.70;;;20.70;55.90;;;;;;5115764;27;20524;-69
2021/06/30 08:55:06;;;;;;;5.40;2.60;;;20.50;55.90;;;;;;5117807;27;20445;-69
2021/06/30 08:57:34;;;;;;;2.20;1.03;;;20.40;56.90;;;;;;5122244;27;20939;-69
2021/06/30 09:00:06;;;;;;;2.50;1.17;;;20.40;57.40;;;;;;5124705;27;20536;-69
2021/06/30 09:02:33;;;;;;;3.30;2.57;;;20.40;57.90;;;;;;5126921;27;20830;-69
2021/06/30 09:05:15;;;;;;;3.10;1.70;;;20.40;58.10;;;;;;5126454;27;20475;-69
2021/06/30 09:07:45;;;;;;;2.43;1.33;;;20.50;58.10;;;;;;5117904;27;20807;-69
2021/06/30 09:10:37;;;;;;;1.90;0.80;;;20.50;57.80;;;;;;5125374;27;20516;-69
2021/06/30 09:13:06;;;;;;;1.70;0.60;;;20.40;57.50;;;;;;5121261;27;20521;-69
2021/06/30 09:15:35;;;;;;;2.67;0.60;;;20.30;59.10;;;;;;5117409;27;20442;-69
2021/06/30 09:18:19;;;;;;;1.97;0.60;;;20.40;60.30;;;;;;5114748;27;20534;-68
2021/06/30 09:20:47;;;;;;;1.50;0.60;;;20.30;61.60;;;;;;5115014;27;20920;-69
2021/06/30 09:23:15;;;;;;;1.53;0.80;;;20.30;62.00;;;;;;5115379;27;20530;-69
2021/06/30 09:25:43;;;;;;;3.03;0.80;;;20.30;60.50;;;;;;5115755;27;20521;-69
2021/06/30 09:28:16;;;;;;;1.37;0.53;;;20.20;61.50;;;;;;5115647;27;20573;-68
2021/06/30 09:31:03;;;;;;;1.43;0.50;;;20.20;60.40;;;;;;5115198;27;20434;-69
2021/06/30 09:33:51;;;;;;;1.40;0.53;;;20.10;60.70;;;;;;5116177;27;20486;-68
2021/06/30 09:36:20;;;;;;;1.40;0.60;;;20.00;59.70;;;;;;5122011;27;20830;-68
2021/06/30 09:38:48;;;;;;;1.50;0.50;;;20.00;60.00;;;;;;5116994;27;20466;-69
2021/06/30 09:41:24;;;;;;;2.10;0.60;;;20.00;59.80;;;;;;5118714;27;20436;-69
2021/06/30 09:44:05;;;;;;;1.40;0.63;;;20.10;60.50;;;;;;5115548;28;20487;-68
2021/06/30 09:46:32;;;;;;;1.90;0.73;;;20.20;61.10;;;;;;5125157;27;20460;-69
2021/06/30 09:49:05;;;;;;;3.10;0.60;;;20.30;59.60;;;;;;5127158;27;20775;-68
2021/06/30 09:51:34;;;;;;;1.40;0.60;;;20.40;59.80;;;;;;5114769;28;20437;-70
2021/06/30 09:54:06;;;;;;;1.40;0.60;;;20.40;59.00;;;;;;5114850;28;20430;-68
2021/06/30 09:56:36;;;;;;;1.70;0.60;;;20.40;60.20;;;;;;5115175;28;20836;-69
2021/06/30 09:59:24;;;;;;;1.93;0.60;;;20.40;60.30;;;;;;5114991;28;20934;-68
2021/06/30 10:01:57;;;;;;;4.60;0.60;;;20.50;61.40;;;;;;5115038;28;20825;-68
2021/06/30 10:04:25;;;;;;;1.53;0.53;;;20.60;58.40;;;;;;5114894;28;20447;-69
2021/06/30 10:06:58;;;;;;;1.40;0.50;;;20.70;60.50;;;;;;5115466;28;20482;-69
2021/06/30 10:09:25;;;;;;;1.40;0.60;;;20.80;59.30;;;;;;5115361;28;20438;-69
2021/06/30 10:11:57;;;;;;;1.57;0.60;;;21.00;59.10;;;;;;5115390;27;20535;-68
2021/06/30 10:14:25;;;;;;;1.57;0.60;;;21.10;56.10;;;;;;5127576;27;20465;-68
2021/06/30 10:16:52;;;;;;;1.70;0.60;;;21.10;56.60;;;;;;5092726;28;20485;-69
2021/06/30 10:19:19;;;;;;;2.70;0.80;;;21.10;56.40;;;;;;5112560;27;20526;-69
2021/06/30 10:21:47;;;;;;;1.80;0.70;;;21.10;56.10;;;;;;5114947;27;20469;-70
2021/06/30 10:24:17;;;;;;;1.90;0.90;;;21.00;55.40;;;;;;5113690;28;20436;-68
2021/06/30 10:26:45;;;;;;;1.50;0.60;;;20.90;55.20;;;;;;5113812;28;20474;-69
2021/06/30 10:29:12;;;;;;;1.80;0.60;;;20.90;55.80;;;;;;5113676;28;20439;-69
2021/06/30 10:31:41;;;;;;;3.40;0.70;;;20.80;55.10;;;;;;5113485;28;20920;-68
2021/06/30 10:34:11;;;;;;;1.60;0.60;;;20.80;55.50;;;;;;5113362;28;20517;-69
2021/06/30 10:36:50;;;;;;;1.30;0.50;;;20.90;55.30;;;;;;5112950;28;20465;-69
2021/06/30 10:39:20;;;;;;;1.63;0.60;;;20.90;55.60;;;;;;5113815;28;20470;-69
2021/06/30 10:41:53;;;;;;;1.70;0.60;;;20.90;55.00;;;;;;5113292;28;20525;-68
2021/06/30 10:44:25;;;;;;;1.40;0.60;;;20.80;55.30;;;;;;5113406;27;20971;-69
2021/06/30 10:46:54;;;;;;;1.40;0.50;;;20.60;54.50;;;;;;5114419;27;20474;-69
2021/06/30 10:49:27;;;;;;;2.00;0.60;;;20.60;55.20;;;;;;5113258;27;20948;-69
2021/06/30 10:51:58;;;;;;;1.47;0.60;;;20.50;56.20;;;;;;5126364;27;20493;-68
2021/06/30 10:54:44;;;;;;;1.80;0.77;;;20.50;56.60;;;;;;5098044;27;20478;-69
2021/06/30 10:57:27;;;;;;;1.70;0.80;;;20.40;56.20;;;;;;5115951;27;20516;-69
2021/06/30 11:00:16;;;;;;;1.87;0.70;;;20.20;54.20;;;;;;5133378;27;20835;-68
2021/06/30 11:02:44;;;;;;;2.00;0.83;;;20.10;54.90;;;;;;5113829;27;20430;-69
2021/06/30 11:05:34;;;;;;;1.50;0.70;;;20.10;55.60;;;;;;5121301;27;20437;-68
2021/06/30 11:08:03;;;;;;;2.20;0.77;;;20.10;56.80;;;;;;5109112;27;20516;-69
2021/06/30 11:10:53;;;;;;;1.40;0.50;;;20.00;57.00;;;;;;5113483;27;20439;-69
2021/06/30 11:13:57;;;;;;;1.87;0.90;;;19.90;57.00;;;;;;5131735;27;20429;-69
2021/06/30 11:16:55;;;;;;;1.60;0.80;;;19.70;58.80;;;;;;5115853;27;20434;-69
2021/06/30 11:19:41;;;;;;;3.00;1.50;;;19.60;59.50;;;;;;5114162;28;20426;-69
2021/06/30 11:22:21;;;;;;;3.20;0.57;;;19.40;59.10;;;;;;5116802;27;20430;-69
2021/06/30 11:24:49;;;;;;;1.50;0.60;;;19.20;59.50;;;;;;5129874;27;20434;-68
2021/06/30 11:27:43;;;;;;;2.30;0.80;;;19.00;59.20;;;;;;5113418;28;20484;-69
2021/06/30 11:30:12;;;;;;;1.70;0.63;;;18.70;60.70;;;;;;5110118;28;20514;-70
2021/06/30 11:32:50;;;;;;;1.70;0.90;;;18.40;60.20;;;;;;5123516;27;20520;-69
2021/06/30 11:35:28;;;;;;;3.20;0.70;;;18.20;62.70;;;;;;5134060;27;20437;-69
2021/06/30 11:38:01;;;;;;;1.80;0.70;;;18.00;64.60;;;;;;5105328;28;20430;-69
2021/06/30 11:40:32;;;;;;;3.13;0.77;;;17.60;65.30;;;;;;5119408;27;20521;-68
2021/06/30 11:43:01;;;;;;;5.63;0.90;;;17.50;67.90;;;;;;5113481;28;20483;-68
2021/06/30 11:45:31;;;;;;;2.00;0.67;;;17.50;69.70;;;;;;5129527;27;20434;-69
2021/06/30 11:48:01;;;;;;;1.60;0.70;;;17.40;69.40;;;;;;5129037;27;20502;-68
2021/06/30 11:50:30;;;;;;;2.50;0.80;;;17.30;69.40;;;;;;5126581;27;20495;-68
2021/06/30 11:52:58;;;;;;;3.30;1.07;;;17.20;70.70;;;;;;5121160;27;20428;-69
2021/06/30 11:55:26;;;;;;;1.90;0.90;;;17.20;72.20;;;;;;5122226;27;20514;-69
2021/06/30 11:57:55;;;;;;;4.23;3.47;;;17.10;73.80;;;;;;5113127;28;20438;-69
2021/06/30 12:00:24;;;;;;;2.57;1.40;;;17.00;74.50;;;;;;5128711;28;20433;-68
2021/06/30 12:02:54;;;;;;;2.23;0.80;;;17.10;75.10;;;;;;5130921;28;20438;-68
2021/06/30 12:05:24;;;;;;;1.50;0.60;;;16.90;75.50;;;;;;5113156;28;20426;-70
2021/06/30 12:07:56;;;;;;;1.63;0.70;;;16.80;76.70;;;;;;5112880;28;20558;-69
2021/06/30 12:10:24;;;;;;;2.20;0.63;;;16.80;77.40;;;;;;5113186;28;20445;-69
2021/06/30 12:13:09;;;;;;;2.13;0.80;;;16.70;77.90;;;;;;5114734;28;20438;-68
2021/06/30 12:15:44;;;;;;;1.90;0.90;;;16.60;78.10;;;;;;5113052;28;20446;-68
2021/06/30 12:18:12;;;;;;;1.80;0.70;;;16.60;78.30;;;;;;5131855;28;20590;-68
2021/06/30 12:20:42;;;;;;;2.87;0.80;;;16.50;77.80;;;;;;5120700;28;20839;-68
2021/06/30 12:23:10;;;;;;;1.60;0.70;;;16.40;80.00;;;;;;5124026;28;20480;-69
2021/06/30 12:25:37;;;;;;;1.67;0.90;;;16.20;80.00;;;;;;5126828;28;20867;-68
2021/06/30 12:28:06;;;;;;;2.83;0.83;;;16.20;81.80;;;;;;5112704;28;20998;-68
2021/06/30 12:30:35;;;;;;;2.00;0.90;;;16.20;80.90;;;;;;5117820;28;20434;-68
2021/06/30 12:33:13;;;;;;;1.80;0.90;;;16.30;82.20;;;;;;5126051;28;20441;-68
2021/06/30 12:35:41;;;;;;;3.33;0.90;;;16.30;80.30;;;;;;5092616;28;20793;-68
2021/06/30 12:38:14;;;;;;;1.50;0.80;;;16.40;81.30;;;;;;5103204;28;20465;-68
2021/06/30 12:40:41;;;;;;;2.60;1.43;;;16.40;80.90;;;;;;5114788;28;20442;-68
2021/06/30 12:43:17;;;;;;;2.27;0.97;;;16.50;80.80;;;;;;5113419;28;20471;-68
2021/06/30 12:45:45;;;;;;;3.40;0.90;;;16.60;82.30;;;;;;5113078;28;20437;-69
2021/06/30 12:48:17;;;;;;;1.80;0.77;;;16.70;80.40;;;;;;5117067;28;20482;-68
2021/06/30 12:50:46;;;;;;;1.80;0.90;;;16.80;80.70;;;;;;5118831;28;20472;-69
2021/06/30 12:53:14;;;;;;;1.87;0.80;;;16.70;79.90;;;;;;5119773;28;20941;-68
2021/06/30 12:55:56;;;;;;;2.13;0.90;;;16.70;80.20;;;;;;5117276;28;20445;-68
2021/06/30 12:58:24;;;;;;;2.67;0.87;;;16.60;81.50;;;;;;5122634;27;20429;-68
2021/06/30 13:00:56;;;;;;;1.70;0.80;;;16.60;82.00;;;;;;5135869;27;20525;-68
2021/06/30 13:03:25;;;;;;;2.03;1.50;;;16.60;81.50;;;;;;5124001;27;20555;-68
2021/06/30 13:06:08;;;;;;;4.37;0.70;;;16.50;79.90;;;;;;5117211;27;20434;-68
2021/06/30 13:08:37;;;;;;;2.10;0.87;;;16.40;80.20;;;;;;5129208;27;21044;-69
2021/06/30 13:11:21;;;;;;;1.67;0.67;;;16.30;79.70;;;;;;5137039;27;20494;-68
2021/06/30 13:14:04;;;;;;;1.80;0.80;;;16.30;80.30;;;;;;5134479;27;20489;-69
2021/06/30 13:16:33;;;;;;;1.67;0.90;;;16.20;80.30;;;;;;5095822;28;20443;-71
2021/06/30 13:19:08;;;;;;;1.53;0.60;;;16.30;81.10;;;;;;5095673;28;20439;-68